Latest Weather Observations for Roxby Downs

IDS60801

Issued at 5:31 pm CST Wednesday 31 August 2016 (issued every 30 minutes, with the page automatically refreshed every 10 minutes)

About weather observations | Map of weather stations | Latest weather observations for SA | Other Formats
Station Details ID: 016096 Name: OLYMPIC DAM AERODROME Lat: -30.48 Lon: 136.88 Height: 98.5 m
Data from the previous 72 hours. | See also: Recent months at Roxby Downs
Date/Time
CST
Temp
°C
App
Temp
°C
Dew
Point
°C
Rel
Hum
%
Delta-T
°C
Wind Press
QNH
hPa
Press
MSL
hPa
Rain since
9am
mm
Dir  Spd
km/h
Gust
km/h
Spd
kts
Gust
kts
31/05:30pm 19.9 17.6 7.6 45 6.3 WSW 9 11 5 6 1017.5 1017.5 0.0
31/05:00pm 19.9 18.0 7.6 45 6.3 SSW 7 11 4 6 1017.3 1017.3 0.0
31/04:30pm 20.0 17.8 7.7 45 6.3 WSW 9 17 5 9 1017.2 1017.2 0.0
31/04:00pm 20.9 18.2 7.2 41 7.0 WSW 11 19 6 10 1017.1 1017.1 0.0
31/03:30pm 20.0 17.8 7.7 45 6.3 SW 9 17 5 9 1017.3 1017.3 0.0
31/03:00pm 20.4 17.3 7.4 43 6.7 WSW 13 20 7 11 1017.7 1017.7 0.0
31/02:30pm 20.2 17.6 7.9 45 6.4 WSW 11 20 6 11 1018.2 1018.2 0.0
31/02:00pm 20.1 18.5 8.8 48 6.0 SSW 7 15 4 8 1018.5 1018.5 0.0
31/01:30pm 19.8 17.4 8.5 48 5.9 WSW 11 13 6 7 1018.8 1018.8 0.0
31/01:00pm 19.2 17.1 8.2 49 5.7 SW 9 13 5 7 1019.2 1019.2 0.0
31/12:30pm 18.8 17.1 8.5 51 5.3 WSW 7 13 4 7 1019.7 1019.7 0.0
31/12:00pm 18.5 17.1 9.6 56 4.7 NNW 7 9 4 5 1020.2 1020.2 0.0
31/11:30am 17.7 16.9 9.6 59 4.3 SSE 4 7 2 4 1020.6 1020.6 0.0
31/11:00am 16.7 15.9 9.6 63 3.7 SSW 4 9 2 5 1020.9 1020.9 0.0
31/10:30am 16.1 15.1 10.2 68 3.1 ESE 6 9 3 5 1021.0 1021.0 0.0
31/10:00am 15.5 14.6 10.5 72 2.7 S 6 11 3 6 1021.2 1021.2 0.0
31/09:30am 14.8 13.3 10.6 76 2.2 SSW 9 13 5 7 1021.4 1021.4 0.0
31/09:00am 14.2 12.7 10.6 79 1.9 SSW 9 15 5 8 1021.3 1021.3 0.0
31/08:30am 13.2 11.2 10.0 81 1.6 S 11 13 6 7 1021.1 1021.1 0.0
31/08:00am 12.1 10.8 10.0 87 1.1 SW 7 11 4 6 1020.8 1020.8 0.0
31/07:30am 10.2 10.0 9.1 93 0.5 CALM 0 0 0 0 1020.3 1020.3 0.0
31/07:00am 9.0 7.2 8.1 94 0.4 SW 7 9 4 5 1020.1 1020.1 0.0
31/06:30am 8.2 6.2 7.1 93 0.5 SSW 7 9 4 5 1019.9 1019.9 0.0
31/06:00am 8.4 6.4 6.9 90 0.7 SSW 7 9 4 5 1019.3 1019.3 0.0
31/05:30am 9.8 8.3 8.4 91 0.7 SSW 6 7 3 4 1019.0 1019.0 0.0
31/05:00am 10.3 8.4 8.9 91 0.7 SW 9 11 5 6 1018.8 1018.8 0.0
31/04:30am 10.2 8.9 9.1 93 0.5 SW 6 6 3 3 1018.4 1018.4 0.0
31/04:00am 10.7 8.9 9.5 92 0.6 WSW 9 11 5 6 1018.3 1018.3 0.0
31/03:30am 10.8 8.7 9.7 93 0.6 WSW 11 13 6 7 1018.1 1018.1 0.0
31/03:00am 10.2 8.7 9.0 92 0.6 SSW 7 9 4 5 1018.1 1018.1 0.0
31/02:30am 11.3 10.0 10.0 92 0.7 SSW 7 9 4 5 1018.1 1018.1 0.0
31/02:00am 11.0 9.4 8.8 86 1.1 SSW 7 9 4 5 1018.2 1018.2 0.0
31/01:30am 12.2 10.9 10.1 87 1.1 SSW 7 7 4 4 1018.3 1018.3 0.0
31/01:00am 12.7 11.5 10.2 85 1.3 SSW 7 9 4 5 1018.2 1018.2 0.0
31/12:30am 13.6 11.6 10.2 80 1.8 SSW 11 13 6 7 1018.0 1018.0 0.0
31/12:00am 14.1 11.6 9.7 75 2.3 SSW 13 15 7 8 1017.7 1017.7 0.0
 
Date/Time
CST
Temp
°C
App
Temp
°C
Dew
Point
°C
Rel
Hum
%
Delta-T
°C
Wind Press
QNH
hPa
Press
MSL
hPa
Rain since
9am
mm
Dir  Spd
km/h
Gust
km/h
Spd
kts
Gust
kts
30/11:30pm 14.3 11.2 8.9 70 2.7 SW 15 24 8 13 1017.4 1017.4 0.0
30/11:00pm 13.7 11.4 9.0 73 2.4 W 11 13 6 7 1017.1 1017.1 0.0
30/10:30pm 13.7 11.5 9.4 75 2.2 W 11 13 6 7 1016.9 1016.9 0.0
30/10:00pm 14.2 12.4 9.4 73 2.5 WNW 9 11 5 6 1016.7 1016.7 0.0
30/09:30pm 14.1 12.4 9.9 76 2.2 NW 9 11 5 6 1016.6 1016.6 0.0
30/09:00pm 14.8 13.1 9.8 72 2.6 NW 9 11 5 6 1016.3 1016.3 0.0
30/08:30pm 15.8 14.1 9.7 67 3.2 WNW 9 9 5 5 1015.8 1015.9 0.0
30/08:00pm 16.9 15.1 9.6 62 3.8 NW 9 11 5 6 1015.4 1015.5 0.0
30/07:30pm 17.4 15.7 9.8 61 4.0 NW 9 11 5 6 1015.0 1015.0 0.0
30/07:00pm 18.5 16.3 9.3 55 4.9 NW 11 13 6 7 1014.6 1014.6 0.0
30/06:30pm 19.3 17.0 8.9 51 5.5 NW 11 13 6 7 1014.2 1014.2 0.0
30/06:00pm 20.4 17.4 7.7 44 6.6 WNW 13 17 7 9 1013.8 1013.8 0.0
30/05:30pm 20.8 17.0 7.4 42 6.9 WNW 17 24 9 13 1013.2 1013.2 0.0
30/05:00pm 22.3 17.3 6.5 36 8.1 WNW 22 35 12 19 1012.7 1012.7 0.0
30/04:30pm 21.7 18.1 9.9 47 6.4 WNW 19 28 10 15 1012.4 1012.4 0.0
30/04:00pm 21.5 17.8 10.3 49 6.1 WNW 20 28 11 15 1012.2 1012.2 0.0
30/03:30pm 22.2 18.5 11.6 51 6.0 NW 22 32 12 17 1012.2 1012.2 0.0
30/03:00pm 22.1 19.7 12.6 55 5.4 NW 17 26 9 14 1012.4 1012.4 0.0
30/02:30pm 21.8 17.9 12.1 54 5.5 NNW 24 33 13 18 1012.6 1012.6 0.0
30/02:00pm 21.4 18.2 13.1 59 4.8 NNW 22 30 12 16 1012.8 1012.8 0.0
30/01:30pm 20.9 18.0 12.8 60 4.6 NNW 20 32 11 17 1013.0 1013.0 0.0
30/01:00pm 20.5 17.9 13.7 65 3.9 NNW 20 32 11 17 1013.2 1013.2 0.0
30/12:30pm 19.6 16.5 13.5 68 3.5 NNW 22 32 12 17 1013.7 1013.7 0.0
30/12:00pm 19.1 16.7 13.7 71 3.1 NNW 19 26 10 14 1014.0 1014.0 0.0
30/11:30am 18.6 15.9 13.5 72 2.9 N 20 28 11 15 1014.3 1014.3 0.0
30/11:14am 18.5 15.4 13.4 72 2.9 N 22 28 12 15 1014.5 1014.5 0.0
30/11:00am 18.2 15.6 13.7 75 2.6 N 20 28 11 15 1014.6 1014.6 0.0
30/10:30am 17.9 15.8 15.2 84 1.6 N 20 28 11 15 1014.8 1014.8 0.0
30/10:22am 16.9 14.2 14.5 86 1.4 N 22 28 12 15 1014.9 1014.9 0.0
30/10:21am 16.8 14.4 14.4 86 1.4 N 20 28 11 15 1014.9 1014.9 0.0
30/10:00am 17.2 15.0 15.0 87 1.3 N 20 26 11 14 1014.9 1014.9 0.0
30/09:30am 15.9 15.0 14.9 94 0.6 N 13 17 7 9 1015.1 1015.1 0.0
30/09:00am 14.8 13.9 13.8 94 0.6 N 11 17 6 9 1015.1 1015.1 17.4
30/08:30am 14.5 12.9 13.9 96 0.3 NNW 15 22 8 12 1014.9 1014.9 17.4
30/08:00am 14.3 12.9 13.5 95 0.4 NW 13 19 7 10 1014.3 1014.3 17.4
30/07:30am 13.8 14.8 13.2 96 0.3 CALM 0 0 0 0 1013.9 1013.9 17.4
30/07:15am 13.5 14.3 12.7 95 0.4 CALM 0 0 0 0 1013.3 1013.3 17.4
30/07:00am 13.6 14.4 12.7 94 0.5 CALM 0 0 0 0 1012.5 1012.5 17.4
30/06:30am 13.8 12.9 12.7 93 0.6 NNW 9 11 5 6 1012.7 1012.7 17.4
30/06:00am 13.9 13.4 12.8 93 0.6 NNW 7 11 4 6 1012.4 1012.4 17.4
30/05:30am 13.9 12.8 13.0 94 0.5 NNW 11 15 6 8 1012.2 1012.2 17.2
30/05:05am 13.9 11.6 13.0 94 0.5 NNW 17 22 9 12 1012.5 1012.5 17.2
30/05:00am 14.1 11.5 13.3 95 0.4 NNW 19 28 10 15 1012.7 1012.7 17.2
30/04:47am 14.5 12.9 14.0 97 0.3 NNW 15 20 8 11 1012.9 1012.9 17.2
30/04:30am 14.6 13.4 14.0 96 0.3 NNW 13 17 7 9 1012.6 1012.6 17.2
30/04:29am 14.5 13.3 13.9 96 0.3 NNW 13 19 7 10 1012.5 1012.5 17.2
30/04:00am 14.4 12.4 13.8 96 0.3 N 17 20 9 11 1012.1 1012.1 17.2
30/03:30am 14.3 12.6 13.7 96 0.3 N 15 20 8 11 1012.2 1012.2 17.2
30/03:00am 14.2 12.5 13.6 96 0.3 N 15 20 8 11 1012.9 1012.9 17.2
30/02:30am 14.1 12.4 13.5 96 0.3 N 15 19 8 10 1012.6 1012.6 17.0
30/02:00am 14.2 11.5 13.4 95 0.4 N 20 30 11 16 1012.5 1012.5 16.6
30/01:30am 14.3 10.7 13.2 93 0.6 N 24 39 13 21 1013.5 1013.5 16.2
30/01:00am 14.4 10.1 13.1 92 0.7 N 28 39 15 21 1013.6 1013.6 16.2
30/12:30am 14.3 10.7 13.0 92 0.7 N 24 35 13 19 1012.9 1012.9 16.2
30/12:00am 14.2 10.6 13.1 93 0.6 N 24 32 13 17 1013.2 1013.2 16.2
 
Date/Time
CST
Temp
°C
App
Temp
°C
Dew
Point
°C
Rel
Hum
%
Delta-T
°C
Wind Press
QNH
hPa
Press
MSL
hPa
Rain since
9am
mm
Dir  Spd
km/h
Gust
km/h
Spd
kts
Gust
kts
29/11:30pm 14.3 10.7 13.2 93 0.6 NNE 24 35 13 19 1012.5 1012.5 16.2
29/11:00pm 14.0 11.2 13.1 94 0.5 N 20 28 11 15 1012.8 1012.8 16.2
29/10:30pm 13.8 11.1 12.9 94 0.5 NNE 19 24 10 13 1013.0 1013.0 16.2
29/10:00pm 13.7 10.8 12.8 94 0.5 NNE 20 30 11 16 1013.5 1013.5 16.2
29/09:30pm 13.6 9.9 12.7 94 0.5 NNE 24 35 13 19 1013.8 1013.8 16.2
29/09:26pm 13.6 9.5 12.7 94 0.5 NNE 26 41 14 22 1013.6 1013.6 16.2
29/09:25pm 13.6 9.5 12.7 94 0.5 NNE 26 41 14 22 1013.5 1013.5 16.2
29/09:03pm 13.4 8.9 12.6 95 0.4 NE 28 46 15 25 1011.5 1011.5 16.2
29/09:00pm 13.4 9.7 12.6 95 0.4 NNE 24 35 13 19 1012.5 1012.5 16.2
29/08:30pm 13.4 8.9 12.6 95 0.4 NNE 28 39 15 21 1013.3 1013.3 16.2
29/08:00pm 13.3 8.8 12.5 95 0.4 NE 28 41 15 22 1012.8 1012.8 16.0
29/07:30pm 13.1 8.9 12.3 95 0.4 NNE 26 33 14 18 1013.5 1013.5 15.6
29/07:00pm 13.2 9.3 12.1 93 0.6 NNE 24 33 13 18 1013.4 1013.4 14.8
29/06:30pm 13.0 9.5 12.2 95 0.4 NNE 22 33 12 18 1013.0 1013.0 14.6
29/06:27pm 12.9 9.4 12.3 96 0.3 NNE 22 33 12 18 1013.1 1013.1 14.6
29/06:00pm 13.1 10.2 12.3 95 0.4 NNE 19 24 10 13 1013.3 1013.3 13.2
29/05:39pm 13.0 9.5 12.2 95 0.4 NNE 22 32 12 17 1013.0 1013.0 11.8
29/05:33pm 13.0 9.1 12.1 94 0.5 NNE 24 32 13 17 1013.1 1013.1 11.4
29/05:30pm 13.1 9.2 12.2 94 0.5 NNE 24 33 13 18 1013.0 1013.0 11.2
29/05:16pm 13.3 9.5 12.5 95 0.4 NNE 24 33 13 18 1012.7 1012.7 11.0
29/05:00pm 13.3 9.5 12.5 95 0.4 NE 24 32 13 17 1012.6 1012.6 10.2
29/04:30pm 13.2 9.4 12.4 95 0.4 NE 24 32 13 17 1012.6 1012.6 9.4
29/04:00pm 13.7 10.5 13.1 96 0.3 NE 22 33 12 18 1012.3 1012.3 8.2
29/03:59pm 13.6 10.4 13.0 96 0.3 NE 22 33 12 18 1012.3 1012.3 8.2
29/03:30pm 13.3 10.0 12.7 96 0.3 NE 22 30 12 16 1012.4 1012.4 7.8
29/03:00pm 13.2 9.8 12.4 95 0.4 NNE 22 32 12 17 1013.0 1013.0 5.2
29/02:52pm 13.2 9.4 12.3 94 0.5 NNE 24 32 13 17 1013.0 1013.0 4.4
29/02:41pm 13.2 8.6 12.3 94 0.5 N 28 41 15 22 1013.2 1013.2 3.4
29/02:30pm 13.5 6.7 11.9 90 0.9 N 39 52 21 28 1013.0 1013.0 1.8
29/02:20pm 14.0 7.9 11.7 86 1.2 N 35 54 19 29 1013.0 1013.0 1.2
29/02:00pm 15.4 9.1 11.0 75 2.4 N 35 52 19 28 1012.8 1012.8 0.4
29/01:34pm 19.3 12.1 7.7 47 6.0 N 35 54 19 29 1011.8 1011.8 0.0
29/01:30pm 19.6 12.4 7.7 46 6.1 N 35 48 19 26 1011.7 1011.7 0.0
29/01:00pm 21.2 13.6 5.6 36 7.8 NNE 35 50 19 27 1011.7 1011.7 0.0
29/12:30pm 22.2 15.0 6.0 35 8.2 NNE 33 46 18 25 1011.7 1011.7 0.0
29/12:00pm 20.3 13.2 6.3 40 7.1 NNE 33 48 18 26 1012.1 1012.1 0.0
29/11:30am 20.3 13.4 6.3 40 7.1 NNE 32 46 17 25 1012.6 1012.6 0.0
29/11:19am 20.3 13.2 6.3 40 7.0 NNE 33 52 18 28 1013.0 1013.0 0.0
29/11:00am 19.7 12.7 6.8 43 6.5 NNE 33 50 18 27 1013.0 1013.0 0.0
29/10:30am 20.0 15.2 9.0 49 5.8 NNE 24 35 13 19 1012.6 1012.6 0.0
29/10:00am 17.3 12.5 8.7 57 4.4 NNE 24 35 13 19 1013.4 1013.4 0.0
29/09:30am 16.0 11.7 9.4 65 3.4 NE 22 30 12 16 1013.7 1013.7 0.0
29/09:00am 14.7 11.5 9.9 73 2.5 NE 17 22 9 12 1013.6 1013.6 0.8
29/08:30am 14.7 11.3 9.1 69 2.9 NNE 17 22 9 12 1014.6 1014.6 0.4
29/08:00am 15.6 10.4 7.4 58 4.1 NNE 24 35 13 19 1014.5 1014.5 0.0
29/07:30am 16.7 11.2 5.9 49 5.3 NNE 24 33 13 18 1014.1 1014.1 0.0
29/07:00am 17.8 11.5 3.7 39 6.6 NNE 26 35 14 19 1013.3 1013.3 0.0
29/06:30am 18.2 11.7 2.5 35 7.2 NNE 26 37 14 20 1012.7 1012.7 0.0
29/06:00am 18.1 11.5 2.0 34 7.3 NE 26 37 14 20 1012.2 1012.2 0.0
29/05:30am 18.1 11.4 1.6 33 7.4 NNE 26 33 14 18 1012.1 1012.1 0.0
29/05:00am 18.0 10.9 1.1 32 7.5 NNE 28 39 15 21 1011.9 1011.9 0.0
29/04:30am 18.0 11.2 1.1 32 7.5 NNE 26 39 14 21 1011.8 1011.8 0.0
29/04:00am 18.2 11.0 0.8 31 7.7 NNE 28 41 15 22 1011.4 1011.4 0.0
29/03:48am 18.5 11.3 0.6 30 7.9 NNE 28 50 15 27 1011.2 1011.2 0.0
29/03:30am 18.5 11.3 0.6 30 7.9 NNE 28 35 15 19 1011.3 1011.3 0.0
29/03:00am 18.7 12.7 0.8 30 8.0 NNE 22 33 12 18 1011.7 1011.7 0.0
29/02:30am 18.6 12.6 1.2 31 7.8 NNE 22 32 12 17 1012.1 1012.1 0.0
29/02:00am 19.0 12.5 0.6 29 8.2 NNE 24 30 13 16 1012.3 1012.3 0.0
29/01:30am 19.2 13.1 0.3 28 8.4 NNE 22 32 12 17 1012.5 1012.5 0.0
29/01:00am 19.3 12.9 0.8 29 8.3 NNE 24 35 13 19 1012.6 1012.6 0.0
29/12:30am 18.8 12.5 1.3 31 7.9 NE 24 35 13 19 1012.1 1012.1 0.0
29/12:00am 19.2 12.0 0.8 29 8.2 NE 28 43 15 23 1012.6 1012.6 0.0
 
Date/Time
CST
Temp
°C
App
Temp
°C
Dew
Point
°C
Rel
Hum
%
Delta-T
°C
Wind Press
QNH
hPa
Press
MSL
hPa
Rain since
9am
mm
Dir  Spd
km/h
Gust
km/h
Spd
kts
Gust
kts
28/11:30pm 19.7 13.2 0.2 27 8.7 NE 24 33 13 18 1013.2 1013.2 0.0
28/11:00pm 19.8 12.9 0.3 27 8.7 NE 26 33 14 18 1012.8 1012.8 0.0
28/10:30pm 19.9 14.2 0.4 27 8.7 NE 20 28 11 15 1013.5 1013.5 0.0
28/10:00pm 19.6 14.2 1.1 29 8.4 NE 19 24 10 13 1013.9 1013.9 0.0
28/09:30pm 19.9 15.7 1.4 29 8.4 NE 13 19 7 10 1014.3 1014.3 0.0
28/09:00pm 20.5 15.9 1.4 28 8.7 NNE 15 20 8 11 1014.3 1014.3 0.0
28/08:30pm 20.8 15.8 1.1 27 9.0 NNE 17 22 9 12 1014.1 1014.1 0.0
28/08:00pm 21.2 15.6 1.0 26 9.2 NNE 20 26 11 14 1014.0 1014.0 0.0
28/07:30pm 21.3 15.9 1.0 26 9.3 NNE 19 28 10 15 1013.4 1013.4 0.0
28/07:00pm 21.5 15.9 1.2 26 9.3 NNE 20 30 11 16 1013.3 1013.3 0.0
28/06:30pm 21.8 15.1 1.5 26 9.4 NNE 26 35 14 19 1013.2 1013.2 0.0
28/06:00pm 21.9 15.2 1.6 26 9.4 NNE 26 41 14 22 1012.3 1012.3 0.0

Other Formats:

Comma delimited format used in spreadsheet applications
http://www.bom.gov.au/fwo/IDS60801/IDS60801.95658.axf

JavaScript Object Notation format (JSON) in row-major order
http://www.bom.gov.au/fwo/IDS60801/IDS60801.95658.json